Time;durP1;ratioP1;P1;durP2;ratioP2;P2;SDS_P1;SDS_P2;PMS_P1;PMS_P2;Temp;Humidity;BMP_temperature;BMP_pressure;BME280_temperature;BME280_humidity;BME280_pressure;Samples;Min_cycle;Max_cycle;Signal;HPM_P1;HPM_P2
2021/05/18 00:02:08;;;;;;;10.63;9.10;;;12.30;99.90;;;;;;5006320;28;20230;-83
2021/05/18 00:04:37;;;;;;;11.87;9.73;;;12.20;99.90;;;;;;5006901;28;20331;-84
2021/05/18 00:07:08;;;;;;;10.83;9.73;;;12.20;99.90;;;;;;5013740;28;20230;-84
2021/05/18 00:12:23;;;;;;;11.77;10.53;;;12.30;99.90;;;;;;5019153;28;20191;-84
2021/05/18 00:14:51;;;;;;;13.27;10.87;;;12.30;99.90;;;;;;5012581;28;20214;-85
2021/05/18 00:17:19;;;;;;;11.77;10.50;;;12.30;99.90;;;;;;5022003;28;20224;-83
2021/05/18 00:19:50;;;;;;;12.73;11.40;;;12.40;99.90;;;;;;5011018;28;20628;-84
2021/05/18 00:22:18;;;;;;;13.57;11.13;;;12.40;99.90;;;;;;5007788;28;20732;-82
2021/05/18 00:24:46;;;;;;;12.63;11.33;;;12.50;99.90;;;;;;5009844;28;20223;-83
2021/05/18 00:27:19;;;;;;;12.23;11.13;;;12.50;99.90;;;;;;5008092;28;20211;-87
2021/05/18 00:29:47;;;;;;;13.50;11.67;;;12.40;99.90;;;;;;5006572;28;20215;-83
2021/05/18 00:32:16;;;;;;;14.40;12.50;;;12.50;99.90;;;;;;5006809;28;20204;-85
2021/05/18 00:34:44;;;;;;;14.87;12.10;;;12.40;99.90;;;;;;5003025;28;20223;-83
2021/05/18 00:37:13;;;;;;;12.97;11.67;;;12.40;99.90;;;;;;5005026;28;20237;-83
2021/05/18 00:39:42;;;;;;;15.10;13.13;;;12.40;99.90;;;;;;5001420;28;20281;-83
2021/05/18 00:42:14;;;;;;;15.03;13.53;;;12.30;99.90;;;;;;5009652;28;20203;-84
2021/05/18 00:44:43;;;;;;;17.23;14.17;;;12.20;99.90;;;;;;5010617;28;20204;-85
2021/05/18 00:47:12;;;;;;;15.60;14.00;;;12.20;99.90;;;;;;5006085;28;20445;-84
2021/05/18 00:49:40;;;;;;;16.33;14.60;;;12.10;99.90;;;;;;4999534;28;20203;-84
2021/05/18 00:52:08;;;;;;;16.10;14.50;;;12.00;99.90;;;;;;4995020;28;20211;-85
2021/05/18 00:54:42;;;;;;;18.23;16.40;;;12.00;99.90;;;;;;4998024;28;20195;-83
2021/05/18 00:59:58;;;;;;;20.00;17.97;;;11.90;99.90;;;;;;4975603;28;20222;-83
2021/05/18 01:02:26;;;;;;;22.73;19.97;;;12.00;99.90;;;;;;5006566;28;20203;-82
2021/05/18 01:05:07;;;;;;;23.13;19.73;;;12.00;99.90;;;;;;5007967;28;20404;-83
2021/05/18 01:07:35;;;;;;;23.13;20.73;;;12.10;99.90;;;;;;5015504;28;20203;-82
2021/05/18 01:10:05;;;;;;;21.67;19.17;;;12.10;99.90;;;;;;5009978;28;20213;-83
2021/05/18 01:12:33;;;;;;;21.17;19.07;;;12.20;99.90;;;;;;5011915;28;20191;-83
2021/05/18 01:15:01;;;;;;;20.97;18.63;;;12.20;99.90;;;;;;4986462;28;20203;-85
2021/05/18 01:17:29;;;;;;;21.87;18.23;;;12.20;99.90;;;;;;4986989;28;20348;-85
2021/05/18 01:20:08;;;;;;;19.63;17.57;;;12.10;99.90;;;;;;5003728;28;20274;-82
2021/05/18 01:22:37;;;;;;;19.90;17.80;;;12.10;99.90;;;;;;5014284;28;20199;-84
2021/05/18 01:25:06;;;;;;;19.80;17.70;;;12.00;99.90;;;;;;5002960;28;20210;-82
2021/05/18 01:27:34;;;;;;;18.97;16.97;;;12.10;99.90;;;;;;5011826;28;20290;-84
2021/05/18 01:30:04;;;;;;;18.87;16.80;;;12.10;99.90;;;;;;4995077;28;20607;-84
2021/05/18 01:32:32;;;;;;;19.00;17.03;;;12.10;99.90;;;;;;4997676;28;20290;-83
2021/05/18 01:35:00;;;;;;;17.80;15.90;;;12.10;99.90;;;;;;4994705;28;20577;-84
2021/05/18 01:37:28;;;;;;;17.73;15.93;;;12.10;99.90;;;;;;4998081;28;20257;-84
2021/05/18 01:40:08;;;;;;;18.30;16.40;;;12.10;99.90;;;;;;4998706;28;20211;-83
2021/05/18 01:42:46;;;;;;;16.70;14.80;;;12.20;99.90;;;;;;4994147;28;20201;-85
2021/05/18 01:45:18;;;;;;;17.07;15.37;;;12.30;99.90;;;;;;5000319;28;20231;-84
2021/05/18 01:47:50;;;;;;;16.30;14.70;;;12.30;99.90;;;;;;4998461;28;20206;-84
2021/05/18 01:50:21;;;;;;;16.17;13.87;;;12.40;99.90;;;;;;4997894;28;20199;-83
2021/05/18 01:52:51;;;;;;;15.17;13.67;;;12.70;99.90;;;;;;4997873;28;20895;-84
2021/05/18 01:55:25;;;;;;;14.63;13.23;;;12.60;99.90;;;;;;4998244;28;20215;-83
2021/05/18 01:57:54;;;;;;;14.57;13.13;;;12.60;99.90;;;;;;4997804;28;20241;-84
2021/05/18 02:00:24;;;;;;;14.70;13.17;;;12.60;99.90;;;;;;5007882;28;21310;-84
2021/05/18 02:02:54;;;;;;;14.03;12.67;;;12.60;99.90;;;;;;5015938;28;20230;-83
2021/05/18 02:05:26;;;;;;;14.43;13.03;;;12.60;99.90;;;;;;5008142;28;20211;-84
2021/05/18 02:07:56;;;;;;;13.77;12.37;;;12.70;99.90;;;;;;5005614;28;20921;-83
2021/05/18 02:10:28;;;;;;;15.73;12.73;;;12.60;99.90;;;;;;5021285;28;20211;-86
2021/05/18 02:12:57;;;;;;;15.13;13.63;;;12.50;99.90;;;;;;4993656;28;20249;-84
2021/05/18 02:15:37;;;;;;;15.00;13.50;;;12.50;99.90;;;;;;5016484;28;20219;-84
2021/05/18 02:18:27;;;;;;;18.13;15.53;;;12.40;99.90;;;;;;4993741;28;20207;-81
2021/05/18 02:21:09;;;;;;;17.43;15.63;;;12.30;99.90;;;;;;4996565;28;20207;-82
2021/05/18 02:26:26;;;;;;;20.87;18.67;;;12.00;99.90;;;;;;5000935;28;20298;-83
2021/05/18 02:28:55;;;;;;;20.67;18.47;;;12.20;99.90;;;;;;4999672;28;20207;-84
2021/05/18 02:31:25;;;;;;;21.77;19.43;;;12.10;99.90;;;;;;4998457;28;20699;-85
2021/05/18 02:33:53;;;;;;;21.67;19.47;;;12.10;99.90;;;;;;4998981;28;20246;-82
2021/05/18 02:36:26;;;;;;;22.63;19.90;;;12.10;99.90;;;;;;5003263;28;20266;-83
2021/05/18 02:38:55;;;;;;;24.37;21.17;;;12.00;99.90;;;;;;5004889;28;20635;-84
2021/05/18 02:41:25;;;;;;;25.60;21.83;;;11.90;99.90;;;;;;5004651;28;20629;-84
2021/05/18 02:43:56;;;;;;;28.80;23.27;;;12.10;99.90;;;;;;4995888;28;20320;-82
2021/05/18 02:49:10;;;;;;;26.30;21.50;;;12.10;99.90;;;;;;4978422;28;20208;-83
2021/05/18 02:51:40;;;;;;;25.97;22.77;;;12.20;99.90;;;;;;5000964;28;20572;-88
2021/05/18 02:54:10;;;;;;;25.47;21.80;;;12.20;99.90;;;;;;4995908;28;20799;-86
2021/05/18 02:56:43;;;;;;;25.57;22.03;;;12.30;99.90;;;;;;5014554;28;20230;-83
2021/05/18 02:59:15;;;;;;;27.53;21.87;;;12.30;99.90;;;;;;5006120;28;20972;-84
2021/05/18 03:01:47;;;;;;;25.43;21.83;;;12.20;99.90;;;;;;5001465;28;20204;-84
2021/05/18 03:04:15;;;;;;;24.43;20.63;;;12.30;99.90;;;;;;4997226;28;20611;-85
2021/05/18 03:06:43;;;;;;;28.33;22.90;;;12.30;99.90;;;;;;5000437;28;20212;-86
2021/05/18 03:09:12;;;;;;;25.97;20.97;;;12.30;99.90;;;;;;5022123;28;20261;-85
2021/05/18 03:11:43;;;;;;;24.30;21.17;;;12.20;99.90;;;;;;4997371;28;20207;-86
2021/05/18 03:14:12;;;;;;;22.77;20.37;;;12.40;99.90;;;;;;4996876;28;20705;-83
2021/05/18 03:16:42;;;;;;;23.83;20.97;;;12.40;99.90;;;;;;4987941;28;20227;-85
2021/05/18 03:19:13;;;;;;;24.40;20.43;;;12.40;99.90;;;;;;5004580;28;20274;-82
2021/05/18 03:21:43;;;;;;;25.17;20.43;;;12.40;99.90;;;;;;5012738;28;20994;-84
2021/05/18 03:24:15;;;;;;;23.53;21.00;;;12.60;99.90;;;;;;5014261;28;20480;-84
2021/05/18 03:26:46;;;;;;;23.73;20.47;;;12.40;99.90;;;;;;5021973;28;20207;-84
2021/05/18 03:29:18;;;;;;;23.97;21.23;;;12.60;99.90;;;;;;5037525;28;20209;-86
2021/05/18 03:34:35;;;;;;;22.63;19.00;;;12.50;99.90;;;;;;5025233;28;20475;-84
2021/05/18 03:37:12;;;;;;;22.67;19.50;;;12.60;99.90;;;;;;5028434;28;20233;-83
2021/05/18 03:39:41;;;;;;;22.33;19.33;;;12.70;99.90;;;;;;5022536;28;20758;-85
2021/05/18 03:42:14;;;;;;;20.53;18.27;;;12.70;99.90;;;;;;5030716;28;20195;-84
2021/05/18 03:58:55;;;;;;;24.23;20.37;;;12.80;99.90;;;;;;5043551;28;20199;-84
2021/05/18 04:04:15;;;;;;;22.47;20.07;;;12.90;99.90;;;;;;5030471;28;20278;-84
2021/05/18 04:18:09;;;;;;;24.40;20.80;;;12.80;99.90;;;;;;5014938;28;20222;-84
2021/05/18 04:20:51;;;;;;;23.53;21.10;;;12.80;99.90;;;;;;5026226;28;20237;-86
2021/05/18 04:23:33;;;;;;;24.03;20.37;;;12.80;99.90;;;;;;5022183;28;20898;-82
2021/05/18 04:26:31;;;;;;;22.07;19.60;;;12.90;99.90;;;;;;5022277;28;20209;-84
2021/05/18 04:40:55;;;;;;;19.70;17.80;;;13.50;99.90;;;;;;5020442;28;20202;-83
2021/05/18 04:51:46;;;;;;;17.80;16.10;;;14.00;98.90;;;;;;5017022;28;20246;-82
2021/05/18 04:59:53;;;;;;;15.63;13.93;;;14.40;96.60;;;;;;5012251;28;20582;-84
2021/05/18 05:02:53;;;;;;;16.97;15.17;;;14.60;95.10;;;;;;5036551;28;20210;-87
2021/05/18 05:08:13;;;;;;;15.70;14.40;;;14.90;94.60;;;;;;5030381;28;20224;-86
2021/05/18 05:16:31;;;;;;;12.90;11.03;;;15.50;91.80;;;;;;4966210;28;21095;-84
2021/05/18 05:19:09;;;;;;;14.50;13.13;;;15.30;91.70;;;;;;4966971;28;20220;-83
2021/05/18 05:21:39;;;;;;;15.70;14.20;;;15.20;92.20;;;;;;4984092;28;20214;-85
2021/05/18 05:24:10;;;;;;;14.70;13.40;;;15.20;92.40;;;;;;5012733;28;20203;-85
2021/05/18 05:26:40;;;;;;;14.07;12.70;;;15.20;92.60;;;;;;5017012;28;20211;-86
2021/05/18 05:29:09;;;;;;;14.43;13.00;;;15.30;92.30;;;;;;5025683;28;20199;-87
2021/05/18 05:31:38;;;;;;;13.67;12.47;;;15.40;92.90;;;;;;5036484;28;20198;-87
2021/05/18 05:34:07;;;;;;;14.10;12.87;;;15.80;91.90;;;;;;5024691;28;20198;-85
2021/05/18 05:36:37;;;;;;;14.47;12.97;;;15.90;91.20;;;;;;5022764;28;20217;-85
2021/05/18 05:39:10;;;;;;;12.37;11.20;;;16.00;90.90;;;;;;5014602;28;20198;-84
2021/05/18 05:41:48;;;;;;;14.20;12.80;;;16.00;91.20;;;;;;5007639;28;20211;-84
2021/05/18 05:44:19;;;;;;;14.30;12.97;;;15.70;91.20;;;;;;5009709;28;20198;-83
2021/05/18 05:46:47;;;;;;;14.37;12.97;;;15.60;91.60;;;;;;5022816;28;20214;-82
2021/05/18 05:49:16;;;;;;;13.17;11.97;;;15.50;91.70;;;;;;5016451;28;20403;-84
2021/05/18 05:51:44;;;;;;;14.43;12.70;;;15.50;91.70;;;;;;5016961;28;20234;-83
2021/05/18 05:54:13;;;;;;;13.20;11.90;;;15.40;91.80;;;;;;5030405;28;20594;-83
2021/05/18 05:56:42;;;;;;;12.27;11.17;;;15.50;91.60;;;;;;5013416;28;20589;-84
2021/05/18 05:59:10;;;;;;;13.67;12.27;;;15.50;91.30;;;;;;5021335;28;20264;-84
2021/05/18 06:01:40;;;;;;;12.37;11.27;;;15.50;91.30;;;;;;5013157;28;20491;-86
2021/05/18 06:04:08;;;;;;;15.13;12.80;;;15.60;91.60;;;;;;5013991;28;20372;-86
2021/05/18 06:06:38;;;;;;;12.53;11.33;;;15.70;91.80;;;;;;5007965;28;20885;-85
2021/05/18 06:09:08;;;;;;;11.70;10.67;;;15.80;91.50;;;;;;5020287;28;20203;-86
2021/05/18 06:11:46;;;;;;;13.50;12.17;;;16.00;91.40;;;;;;4990744;28;20496;-87
2021/05/18 06:14:32;;;;;;;14.03;12.40;;;16.10;91.00;;;;;;5008786;28;20457;-85
2021/05/18 06:17:37;;;;;;;12.90;11.70;;;16.30;90.90;;;;;;5023541;28;20397;-85
2021/05/18 06:34:14;;;;;;;12.37;11.20;;;16.60;90.20;;;;;;5002113;28;20649;-85
2021/05/18 06:37:10;;;;;;;12.27;11.17;;;16.70;89.20;;;;;;4999865;28;20204;-83
2021/05/18 06:42:46;;;;;;;12.43;11.33;;;16.50;90.10;;;;;;5011317;28;20202;-86
2021/05/18 06:48:02;;;;;;;12.50;11.23;;;16.70;88.90;;;;;;5007083;28;20206;-82
2021/05/18 06:50:30;;;;;;;12.60;11.47;;;16.90;88.70;;;;;;5009842;28;20214;-83
2021/05/18 06:52:58;;;;;;;12.40;11.17;;;16.90;88.10;;;;;;4998567;28;20331;-84
2021/05/18 06:55:28;;;;;;;12.70;11.50;;;16.90;88.10;;;;;;5006823;28;20727;-82
2021/05/18 06:58:01;;;;;;;12.77;11.57;;;16.80;88.30;;;;;;5014931;28;21049;-85
2021/05/18 07:00:31;;;;;;;12.40;11.30;;;16.80;88.80;;;;;;5003319;28;21380;-82
2021/05/18 07:02:59;;;;;;;12.73;11.63;;;16.80;88.40;;;;;;5012176;28;20203;-84
2021/05/18 07:05:34;;;;;;;13.57;12.27;;;16.80;88.60;;;;;;5026134;28;20206;-81
2021/05/18 07:08:22;;;;;;;13.13;12.13;;;16.80;88.40;;;;;;5023768;28;20467;-84
2021/05/18 07:10:50;;;;;;;13.30;12.10;;;16.80;88.30;;;;;;5025571;28;20187;-84
2021/05/18 07:13:19;;;;;;;14.17;12.87;;;16.80;88.10;;;;;;5028397;28;20194;-83
2021/05/18 07:15:48;;;;;;;14.77;13.37;;;16.70;88.30;;;;;;5028616;28;20203;-85
2021/05/18 07:18:17;;;;;;;15.53;13.93;;;16.60;88.20;;;;;;5015797;28;20491;-83
2021/05/18 07:20:45;;;;;;;14.57;13.27;;;16.60;88.40;;;;;;5026673;28;20240;-83
2021/05/18 07:23:18;;;;;;;14.40;13.00;;;16.50;88.40;;;;;;5025413;28;20473;-84
2021/05/18 07:25:47;;;;;;;14.87;13.57;;;16.50;88.70;;;;;;5020129;28;20210;-85
2021/05/18 07:28:16;;;;;;;15.10;13.57;;;16.50;88.30;;;;;;5026275;28;20233;-85
2021/05/18 07:30:45;;;;;;;14.07;12.97;;;16.50;88.60;;;;;;5020363;28;21069;-85
2021/05/18 07:33:14;;;;;;;14.97;13.57;;;16.50;88.60;;;;;;5006626;28;20214;-84
2021/05/18 07:35:45;;;;;;;14.77;13.13;;;16.70;88.20;;;;;;5008277;28;20287;-83
2021/05/18 07:38:13;;;;;;;14.47;12.93;;;16.80;88.00;;;;;;5006631;28;20500;-85
2021/05/18 07:40:42;;;;;;;14.13;12.90;;;16.80;87.90;;;;;;5007689;28;20759;-85
2021/05/18 07:43:13;;;;;;;14.27;12.93;;;16.90;88.20;;;;;;5005291;28;20231;-86
2021/05/18 07:45:42;;;;;;;14.30;12.97;;;17.10;87.90;;;;;;5011757;28;20281;-86
2021/05/18 07:48:17;;;;;;;14.67;13.03;;;17.10;87.70;;;;;;5029000;28;20195;-86
2021/05/18 07:50:53;;;;;;;14.13;12.43;;;16.90;87.90;;;;;;5027640;28;20190;-83
2021/05/18 07:59:22;;;;;;;14.60;13.20;;;16.50;89.00;;;;;;4977886;28;20243;-86
2021/05/18 08:07:24;;;;;;;13.60;12.30;;;17.10;88.50;;;;;;5010124;28;20889;-86
2021/05/18 08:10:08;;;;;;;14.03;12.83;;;17.30;88.00;;;;;;4999082;28;20214;-86
2021/05/18 08:12:40;;;;;;;14.57;13.10;;;17.40;88.00;;;;;;5001404;28;20221;-85
2021/05/18 08:15:31;;;;;;;14.20;13.10;;;17.40;87.30;;;;;;5024945;28;20418;-85
2021/05/18 08:18:09;;;;;;;14.17;12.87;;;17.20;87.60;;;;;;5021380;28;20704;-85
2021/05/18 09:48:14;;;;;;;9.57;8.60;;;19.30;84.50;;;;;;4989389;28;20210;-87
2021/05/18 10:36:02;;;;;;;9.93;9.10;;;18.10;84.60;;;;;;5022564;28;20199;-85
2021/05/18 10:38:36;;;;;;;9.63;8.83;;;18.00;85.20;;;;;;5015095;28;20317;-84
2021/05/18 10:41:12;;;;;;;10.27;9.37;;;17.90;85.50;;;;;;5035494;28;20237;-90
2021/05/18 10:43:42;;;;;;;10.47;9.07;;;17.80;85.30;;;;;;5068999;22;20230;-88
2021/05/18 10:46:20;;;;;;;10.37;9.43;;;17.70;85.70;;;;;;5009066;28;20210;-87
2021/05/18 10:49:07;;;;;;;10.27;9.27;;;17.50;85.60;;;;;;4994848;28;20274;-86
2021/05/18 10:51:42;;;;;;;11.00;10.00;;;17.60;86.50;;;;;;4990798;28;20253;-87
2021/05/18 10:54:24;;;;;;;11.03;10.03;;;17.40;86.20;;;;;;4978064;28;20440;-86
2021/05/18 10:57:07;;;;;;;11.87;10.67;;;17.20;86.50;;;;;;4985937;28;20223;-86
2021/05/18 10:59:38;;;;;;;12.40;11.13;;;17.20;86.50;;;;;;5011212;28;20231;-85
2021/05/18 11:02:11;;;;;;;12.17;11.03;;;17.10;86.50;;;;;;5003916;28;20854;-86
2021/05/18 11:04:49;;;;;;;11.93;10.83;;;17.10;87.30;;;;;;4997336;28;20395;-84
2021/05/18 11:07:20;;;;;;;12.47;10.43;;;17.20;87.10;;;;;;4998704;28;20211;-86
2021/05/18 11:09:56;;;;;;;11.27;10.37;;;17.30;87.10;;;;;;5003104;28;20285;-87
2021/05/18 11:12:27;;;;;;;10.77;9.93;;;17.20;86.90;;;;;;4987664;28;20198;-85
2021/05/18 11:15:11;;;;;;;11.60;10.50;;;17.30;87.50;;;;;;5000633;28;20200;-87
2021/05/18 11:17:41;;;;;;;12.33;11.17;;;17.30;86.90;;;;;;4992748;28;20228;-89
2021/05/18 11:20:22;;;;;;;12.07;10.93;;;17.30;86.70;;;;;;4978531;28;20246;-84
2021/05/18 11:25:48;;;;;;;13.00;11.73;;;17.40;87.20;;;;;;4978184;28;20613;-86
2021/05/18 11:28:26;;;;;;;13.50;12.30;;;17.60;86.60;;;;;;4988325;28;20645;-85
2021/05/18 11:31:00;;;;;;;13.23;12.07;;;17.40;86.60;;;;;;4986454;28;20341;-88
2021/05/18 11:33:33;;;;;;;12.93;11.67;;;17.60;86.70;;;;;;4974708;28;20860;-87
2021/05/18 11:36:05;;;;;;;12.83;11.67;;;17.70;87.00;;;;;;4992028;28;20207;-88
2021/05/18 11:38:34;;;;;;;13.40;12.20;;;17.70;86.40;;;;;;5005302;28;20242;-86
2021/05/18 11:41:05;;;;;;;13.53;12.13;;;17.70;86.60;;;;;;5009652;28;20199;-87
2021/05/18 11:43:37;;;;;;;12.03;10.83;;;17.80;86.20;;;;;;4992652;28;20214;-87
2021/05/18 11:46:09;;;;;;;12.70;11.50;;;17.90;87.30;;;;;;5002858;28;20461;-87
2021/05/18 11:48:40;;;;;;;11.97;10.80;;;18.20;86.80;;;;;;5007372;28;20579;-87
2021/05/18 11:51:11;;;;;;;12.83;11.50;;;18.20;86.10;;;;;;4991833;28;20555;-85
2021/05/18 11:53:42;;;;;;;13.53;12.33;;;18.10;86.50;;;;;;4979367;28;20239;-88
2021/05/18 11:56:25;;;;;;;13.27;11.97;;;18.50;86.30;;;;;;4971482;28;20243;-87
2021/05/18 11:59:04;;;;;;;13.03;11.97;;;18.50;86.10;;;;;;4990313;28;20207;-87
2021/05/18 12:01:34;;;;;;;12.87;11.77;;;18.80;85.70;;;;;;4994624;28;20265;-86
2021/05/18 12:04:04;;;;;;;13.60;12.40;;;18.90;85.40;;;;;;4984454;28;20200;-87
2021/05/18 12:06:39;;;;;;;13.43;12.33;;;18.70;85.10;;;;;;4988148;28;20203;-84
2021/05/18 12:09:10;;;;;;;14.03;12.73;;;18.40;85.40;;;;;;4985254;28;20703;-85
2021/05/18 12:11:41;;;;;;;13.87;12.67;;;18.20;85.60;;;;;;4997764;28;20206;-87
2021/05/18 12:14:12;;;;;;;14.47;13.27;;;18.00;85.60;;;;;;4999749;28;20262;-86
2021/05/18 12:16:42;;;;;;;14.07;12.87;;;17.80;86.10;;;;;;4984492;28;20204;-87
2021/05/18 12:19:16;;;;;;;14.90;13.37;;;17.80;86.10;;;;;;4992042;28;20245;-87
2021/05/18 12:21:50;;;;;;;14.50;13.10;;;17.80;86.30;;;;;;4991407;28;20199;-86
2021/05/18 12:24:22;;;;;;;14.97;13.57;;;18.00;86.10;;;;;;4999873;28;20206;-83
2021/05/18 12:26:53;;;;;;;14.60;13.30;;;18.10;85.80;;;;;;4990038;28;21300;-87
2021/05/18 12:29:34;;;;;;;13.97;12.67;;;17.90;86.00;;;;;;4979567;28;20269;-84
2021/05/18 12:32:17;;;;;;;13.57;12.33;;;18.00;85.80;;;;;;4993502;28;20279;-84
2021/05/18 12:34:46;;;;;;;13.67;12.43;;;18.20;85.60;;;;;;4997166;28;20265;-85
2021/05/18 12:37:15;;;;;;;13.63;12.40;;;18.40;85.50;;;;;;5001487;28;20520;-84
2021/05/18 12:39:45;;;;;;;12.83;11.67;;;18.60;85.40;;;;;;4990493;28;20223;-86
2021/05/18 12:42:23;;;;;;;12.60;11.50;;;19.00;85.40;;;;;;4988520;28;20229;-85
2021/05/18 12:44:55;;;;;;;12.17;11.07;;;19.40;84.30;;;;;;4996484;28;20219;-83
2021/05/18 12:47:32;;;;;;;11.53;10.63;;;19.40;84.10;;;;;;4974843;28;20215;-85
2021/05/18 12:50:00;;;;;;;12.00;11.00;;;18.80;84.10;;;;;;4983886;28;20337;-83
2021/05/18 12:52:36;;;;;;;11.97;10.97;;;18.80;84.30;;;;;;4980757;28;20219;-83
2021/05/18 12:55:14;;;;;;;12.00;10.97;;;18.60;84.30;;;;;;4976724;28;20479;-84
2021/05/18 12:57:51;;;;;;;11.97;10.83;;;18.40;85.20;;;;;;4996693;28;20199;-83
2021/05/18 13:00:35;;;;;;;12.37;10.90;;;18.40;84.80;;;;;;5006375;28;20230;-83
2021/05/18 13:03:12;;;;;;;12.10;10.93;;;18.10;85.20;;;;;;4991082;28;20394;-83
2021/05/18 13:05:44;;;;;;;11.40;10.40;;;17.90;85.10;;;;;;4981105;28;20230;-85
2021/05/18 13:08:16;;;;;;;11.40;10.30;;;17.80;85.50;;;;;;4981980;28;20208;-84
2021/05/18 13:10:53;;;;;;;10.93;9.83;;;17.90;85.90;;;;;;4993085;28;20269;-83
2021/05/18 13:13:23;;;;;;;10.97;9.97;;;17.90;85.70;;;;;;4975239;28;20907;-83
2021/05/18 13:16:08;;;;;;;10.53;9.53;;;18.00;85.40;;;;;;4979551;28;21086;-83
2021/05/18 13:18:40;;;;;;;10.70;9.70;;;18.00;85.70;;;;;;4989420;28;20298;-82
2021/05/18 13:21:19;;;;;;;10.17;9.27;;;18.00;85.40;;;;;;4989979;28;20318;-83
2021/05/18 13:24:01;;;;;;;9.57;8.70;;;18.10;85.80;;;;;;4993385;28;20589;-83
2021/05/18 13:26:30;;;;;;;9.57;8.77;;;18.30;85.50;;;;;;4994729;28;20433;-85
2021/05/18 13:28:59;;;;;;;10.20;9.30;;;18.40;84.90;;;;;;5004163;28;20209;-85
2021/05/18 13:31:29;;;;;;;12.07;9.53;;;18.70;85.10;;;;;;4988846;28;20234;-84
2021/05/18 13:33:59;;;;;;;11.90;9.87;;;18.40;84.80;;;;;;4992473;28;20369;-80
2021/05/18 13:36:45;;;;;;;11.10;10.10;;;18.40;84.80;;;;;;4997005;28;20488;-83
2021/05/18 13:39:15;;;;;;;11.03;9.93;;;18.20;84.80;;;;;;4982548;28;20219;-83
2021/05/18 13:41:44;;;;;;;11.20;10.20;;;17.90;85.40;;;;;;4967313;28;20313;-85
2021/05/18 13:44:14;;;;;;;10.80;9.83;;;18.00;85.30;;;;;;4976421;28;20547;-84
2021/05/18 13:46:44;;;;;;;11.73;10.57;;;17.70;85.50;;;;;;4981844;28;20235;-83
2021/05/18 13:49:13;;;;;;;10.43;9.53;;;17.70;85.70;;;;;;4980889;28;20207;-83
2021/05/18 13:51:41;;;;;;;11.83;10.73;;;17.90;86.10;;;;;;4984119;28;20215;-84
2021/05/18 13:54:30;;;;;;;11.20;10.30;;;18.50;85.50;;;;;;4962945;28;21006;-86
2021/05/18 13:56:59;;;;;;;13.50;12.40;;;18.80;85.20;;;;;;4976855;28;20211;-82
2021/05/18 13:59:28;;;;;;;13.00;11.90;;;18.60;84.70;;;;;;4982820;28;20688;-83
2021/05/18 14:01:58;;;;;;;12.77;11.77;;;18.30;85.10;;;;;;5004415;28;20376;-83
2021/05/18 14:04:26;;;;;;;12.10;11.10;;;18.00;85.30;;;;;;5004924;28;20199;-84
2021/05/18 14:07:38;;;;;;;11.20;10.20;;;17.90;85.60;;;;;;5010078;28;20216;-85
2021/05/18 14:10:07;;;;;;;10.57;9.67;;;17.70;85.60;;;;;;4990644;28;20212;-83
2021/05/18 14:12:35;;;;;;;11.27;10.17;;;17.70;86.10;;;;;;5000397;28;20200;-82
2021/05/18 14:15:04;;;;;;;10.50;9.57;;;17.90;85.70;;;;;;4996945;28;20215;-83
2021/05/18 14:17:34;;;;;;;10.83;9.17;;;17.90;85.70;;;;;;4998008;28;20258;-83
2021/05/18 14:20:02;;;;;;;9.73;8.70;;;18.10;85.80;;;;;;5002325;28;21284;-84
2021/05/18 14:22:31;;;;;;;9.67;8.77;;;18.00;85.90;;;;;;4988575;28;20262;-81
2021/05/18 14:25:05;;;;;;;9.20;8.50;;;18.10;85.70;;;;;;4991839;28;20538;-83
2021/05/18 14:27:33;;;;;;;12.07;8.80;;;17.80;85.60;;;;;;4986838;28;20346;-84
2021/05/18 14:30:09;;;;;;;10.27;8.60;;;17.50;85.80;;;;;;4991242;28;20772;-84
2021/05/18 14:32:38;;;;;;;9.30;8.30;;;17.30;86.50;;;;;;4985356;28;20632;-83
2021/05/18 14:35:09;;;;;;;10.53;8.30;;;17.20;86.70;;;;;;4974502;28;20215;-83
2021/05/18 14:37:41;;;;;;;12.93;8.80;;;16.90;86.70;;;;;;4989261;28;20567;-84
2021/05/18 14:40:25;;;;;;;8.70;8.00;;;16.80;87.00;;;;;;4992913;28;20246;-83
2021/05/18 14:42:55;;;;;;;9.43;8.50;;;16.70;87.20;;;;;;4995681;28;20417;-83
2021/05/18 14:45:30;;;;;;;9.43;8.07;;;16.60;87.50;;;;;;5013733;28;20207;-88
2021/05/18 14:54:15;;;;;;;9.13;7.50;;;17.00;87.90;;;;;;5124816;27;20203;-81
2021/05/18 14:56:43;;;;;;;10.17;7.87;;;17.10;87.00;;;;;;5108444;27;20539;-85
2021/05/18 14:59:13;;;;;;;8.07;7.33;;;16.90;87.00;;;;;;5113730;27;20215;-86
2021/05/18 15:01:42;;;;;;;8.40;7.57;;;16.80;87.20;;;;;;5113454;27;20569;-86
2021/05/18 15:04:10;;;;;;;8.57;7.70;;;16.70;87.30;;;;;;5109907;27;20196;-84
2021/05/18 15:06:40;;;;;;;8.30;7.50;;;16.50;87.70;;;;;;5109079;27;20242;-83
2021/05/18 15:09:15;;;;;;;7.57;6.97;;;16.40;87.90;;;;;;5109967;27;20229;-84
2021/05/18 15:11:44;;;;;;;7.47;6.87;;;16.60;87.90;;;;;;5106643;27;20914;-85
2021/05/18 15:14:13;;;;;;;7.13;6.63;;;16.80;87.70;;;;;;5111481;27;20207;-85
2021/05/18 15:16:44;;;;;;;7.17;6.60;;;16.80;87.30;;;;;;5103818;27;20452;-87
2021/05/18 15:19:18;;;;;;;6.80;6.20;;;16.90;87.50;;;;;;5109506;27;20238;-86
2021/05/18 15:21:48;;;;;;;6.90;6.20;;;17.00;87.30;;;;;;5122776;27;20210;-84
2021/05/18 15:24:17;;;;;;;8.00;6.77;;;17.00;87.10;;;;;;5134796;27;20200;-84
2021/05/18 15:26:46;;;;;;;8.27;6.53;;;17.00;87.10;;;;;;5135664;27;20215;-86
2021/05/18 15:29:15;;;;;;;6.70;6.10;;;16.90;87.30;;;;;;5141653;27;20215;-86
2021/05/18 15:31:44;;;;;;;6.87;6.27;;;16.90;87.10;;;;;;5137278;27;20195;-84
2021/05/18 15:34:17;;;;;;;6.97;6.30;;;16.90;87.00;;;;;;5136382;27;20203;-84
2021/05/18 15:36:45;;;;;;;6.33;5.60;;;16.70;87.30;;;;;;5137813;27;20237;-85
2021/05/18 15:39:15;;;;;;;7.03;6.33;;;16.50;87.50;;;;;;5141036;27;20200;-83
2021/05/18 15:41:45;;;;;;;6.97;6.33;;;16.40;87.90;;;;;;5128057;27;20199;-86
2021/05/18 15:44:13;;;;;;;7.63;6.33;;;16.20;88.10;;;;;;5127169;27;20214;-88
2021/05/18 15:46:41;;;;;;;6.50;5.97;;;16.00;88.70;;;;;;5124630;27;20187;-83
2021/05/18 15:49:09;;;;;;;7.10;6.50;;;15.90;88.60;;;;;;5138286;27;20267;-82
2021/05/18 15:51:38;;;;;;;6.83;6.13;;;15.80;89.10;;;;;;5138752;27;20192;-84
2021/05/18 15:54:06;;;;;;;6.87;6.13;;;15.80;89.40;;;;;;5139503;27;20349;-84
2021/05/18 15:56:36;;;;;;;7.23;6.10;;;15.80;89.40;;;;;;5133148;27;20206;-85
2021/05/18 15:59:05;;;;;;;6.93;6.27;;;15.80;89.00;;;;;;5136656;27;20215;-85
2021/05/18 16:01:37;;;;;;;6.40;5.80;;;15.80;88.90;;;;;;5126781;27;20535;-84
2021/05/18 16:04:06;;;;;;;5.90;5.40;;;15.60;89.20;;;;;;5124692;27;20191;-84
2021/05/18 16:06:39;;;;;;;5.80;5.30;;;15.60;89.30;;;;;;5117073;27;21060;-84
2021/05/18 16:09:07;;;;;;;6.17;5.63;;;15.50;89.40;;;;;;5125383;27;20207;-84
2021/05/18 16:11:37;;;;;;;6.57;5.97;;;15.40;89.60;;;;;;5114466;27;20205;-84
2021/05/18 16:14:05;;;;;;;6.93;5.80;;;15.40;90.00;;;;;;5113085;27;20263;-83
2021/05/18 16:16:35;;;;;;;6.20;5.40;;;15.30;89.80;;;;;;5121731;27;20522;-86
2021/05/18 16:19:04;;;;;;;5.90;5.40;;;15.30;90.00;;;;;;5124665;27;20192;-85
2021/05/18 16:21:33;;;;;;;6.10;5.50;;;15.30;90.20;;;;;;5122669;27;20200;-88
2021/05/18 16:24:02;;;;;;;6.77;5.80;;;15.30;90.10;;;;;;5115841;27;20204;-84
2021/05/18 16:26:32;;;;;;;7.07;5.77;;;15.30;90.10;;;;;;5124608;27;20197;-84
2021/05/18 16:29:03;;;;;;;6.40;5.80;;;15.20;90.10;;;;;;5101703;27;20208;-84
2021/05/18 16:31:32;;;;;;;6.17;5.57;;;15.10;90.30;;;;;;5122326;27;20196;-85
2021/05/18 16:34:02;;;;;;;6.17;5.67;;;15.00;90.40;;;;;;5118687;27;20216;-83
2021/05/18 16:36:30;;;;;;;6.50;5.90;;;15.00;90.50;;;;;;5120021;27;20210;-85
2021/05/18 16:38:58;;;;;;;7.53;5.87;;;15.00;90.50;;;;;;5121418;27;20200;-83
2021/05/18 16:41:37;;;;;;;6.40;5.80;;;15.00;90.60;;;;;;5119234;27;20211;-85
2021/05/18 16:44:09;;;;;;;6.20;5.70;;;15.00;90.70;;;;;;5120822;27;20190;-84
2021/05/18 16:46:38;;;;;;;6.47;5.90;;;14.90;90.70;;;;;;5124059;27;20231;-86
2021/05/18 16:49:07;;;;;;;7.07;6.40;;;14.90;90.80;;;;;;5122734;27;20218;-84
2021/05/18 16:51:36;;;;;;;6.40;5.90;;;14.90;90.70;;;;;;5122536;27;20204;-85
2021/05/18 16:54:06;;;;;;;6.50;6.00;;;15.00;90.90;;;;;;5115234;28;20574;-84
2021/05/18 16:56:35;;;;;;;6.37;5.87;;;14.90;90.90;;;;;;5117266;27;20196;-85
2021/05/18 16:59:04;;;;;;;7.23;6.53;;;14.80;91.00;;;;;;5127246;27;20814;-84
2021/05/18 17:01:35;;;;;;;6.90;6.40;;;14.80;91.00;;;;;;5123636;27;20235;-87
2021/05/18 17:04:13;;;;;;;7.47;6.67;;;14.80;91.20;;;;;;5109744;27;20200;-85
2021/05/18 17:06:42;;;;;;;7.37;6.77;;;14.80;91.50;;;;;;5107016;27;20223;-84
2021/05/18 17:09:11;;;;;;;8.40;7.50;;;14.70;91.60;;;;;;5109966;27;20224;-84